• Join FlightAware (Why Join?)
  • Login
  • US Flag 
11:55PM EST


 

Airport Tracker/Info


-or-


 

Live Flight TrackerFlight Track Log ✈ GJS3657 ✈ 19-Dec-2013 ✈ KGRR - KIAD

Flight Track Log - Related Links

Times and Time Zones

All times are in EST time to prevent confusion due to time zone crossing. See the GJS3657 flight status page for this flight to view local times or setup timezone preferences in your user account.

Time Position Orientation Groundspeed Altitude Reporting Facility
EST Latitude Longitude Course Direction KTS MPH feet Rate Location/Type
10:06AM 42.8486 -85.5525 120° Southeast 219 252 21,000  Level Chicago Center
10:07AM 42.8008 -85.4931 138° Southeast 304 350 6,200 -5,520 Descending Chicago Center
10:08AM 42.7933 -85.3819 95° East 295 339 9,600 2,700 Climbing Chicago Center
10:10AM 42.7806 -85.2589 98° East 314 361 11,900 1,980 Climbing Chicago Center
10:11AM 42.7650 -85.1153 98° East 355 409 13,700 1,800 Climbing Chicago Center
10:12AM 42.4281 -84.4781 120° Southeast  Level Estimated
10:12AM 42.7467 -84.9514 99° East 412 474 15,700  Level Chicago Center
10:13AM 42.7275 -84.7844 99° East 436 502 17,800 2,160 Climbing Chicago Center
10:14AM 42.6636 -84.5967 115° Southeast 464 534 20,200 2,100 Climbing Chicago Center
10:15AM 42.5883 -84.4528 125° Southeast 465 535 22,200 1,920 Climbing Chicago Center
10:16AM 42.5114 -84.3094 126° Southeast 469 540 24,200 1,320 Climbing Chicago Center
10:17AM 42.4317 -84.1614 126° Southeast 482 555 25,000 300 Climbing Chicago Center
10:18AM 42.3106 -83.9381 126° Southeast 511 588 25,000  Level Cleveland Center
10:19AM 42.2267 -83.7836 126° Southeast 516 594 25,000  Level Cleveland Center
10:20AM 42.1900 -83.5942 105° East 540 621 25,000  Level Cleveland Center
10:21AM 42.1586 -83.3722 101° East 542 624 25,000  Level Cleveland Center
10:22AM 42.1317 -83.1656 100° East 547 629 25,000  Level Cleveland Center
10:23AM 42.1028 -82.9669 101° East 545 627 25,000  Level Cleveland Center
10:24AM 42.0014 -82.8303 135° Southeast 519 597 25,000  Level Cleveland Center
10:25AM 41.8897 -82.7133 142° Southeast 510 587 25,000  Level Cleveland Center
10:26AM 41.7786 -82.5969 142° Southeast 508 585 25,000  Level Cleveland Center
10:27AM 41.6456 -82.4578 142° Southeast 506 582 25,000  Level Cleveland Center
10:28AM 41.5339 -82.3436 143° Southeast 502 578 25,000  Level Cleveland Center
10:29AM 41.4228 -82.2294 142° Southeast 503 579 25,000  Level Cleveland Center
10:31AM 41.3203 -82.1053 138° Southeast 504 580 25,000  Level Cleveland Center
10:32AM 41.2275 -81.9583 130° Southeast 516 594 25,000  Level Cleveland Center
10:33AM 41.1192 -81.7908 131° Southeast 513 590 25,000  Level Cleveland Center
10:34AM 41.0272 -81.6478 130° Southeast 513 590 25,000  Level Cleveland Center
10:35AM 40.9339 -81.5036 131° Southeast 514 592 25,000  Level Cleveland Center
10:36AM 40.8394 -81.3594 131° Southeast 517 595 25,000  Level Cleveland Center
10:37AM 40.7456 -81.2164 131° Southeast 513 590 25,000  Level Cleveland Center
10:38AM 40.6503 -81.0728 131° Southeast 515 593 25,000  Level Cleveland Center
10:39AM 40.5564 -80.9317 131° Southeast 516 594 25,000  Level Cleveland Center
10:40AM 40.4442 -80.7633 131° Southeast 515 593 25,000  Level Cleveland Center
10:41AM 40.3506 -80.6222 131° Southeast 516 594 25,000  Level Cleveland Center
10:42AM 40.2561 -80.4839 132° Southeast 516 594 25,000  Level Cleveland Center
10:43AM 40.1625 -80.3450 131° Southeast 517 595 25,000  Level Cleveland Center
10:44AM 40.0497 -80.1789 132° Southeast 517 595 25,000  Level Cleveland Center
10:45AM 39.9553 -80.0394 131° Southeast 518 596 25,000  Level Cleveland Center
10:46AM 39.8606 -79.9014 132° Southeast 517 595 25,000  Level Cleveland Center
10:47AM 39.7650 -79.7636 132° Southeast 515 593 25,000  Level Cleveland Center
10:48AM 39.6694 -79.6247 132° Southeast 516 594 25,000  Level Cleveland Center
10:49AM 39.5850 -79.4325 120° Southeast 522 601 25,000 -480 Level Cleveland Center
10:50AM 39.5367 -79.2564 110° East 522 601 24,100 -780 Descending Cleveland Center
10:51AM 39.4900 -79.0836 109° East 514 592 23,400 -1,500 Descending Cleveland Center
10:52AM 39.4478 -78.9308 110° East 491 565 21,000 -2,640 Descending Cleveland Center
10:53AM 39.3953 -78.7456 110° East 466 536 18,000 -2,520 Descending Cleveland Center
10:54AM 39.3544 -78.5978 110° East 446 513 15,800 -2,040 Descending Cleveland Center
10:55AM 39.3136 -78.4589 111° Southeast 423 487 13,800 -1,860 Descending Cleveland Center
10:56AM 39.2708 -78.3328 114° Southeast 389 448 12,000 -1,320 Descending Cleveland Center
10:58AM 39.2019 -78.2083 126° Southeast 362 417 10,900 -1,140 Descending Washington Center
10:59AM 39.1517 -78.1103 123° Southeast 343 395 9,600 -960 Descending Washington Center
11:00AM 39.0994 -78.0147 125° Southeast 331 381 9,000 -1,020 Descending Washington Center
11:01AM 39.0492 -77.9222 125° Southeast 326 375 7,600 -1,440 Descending Washington Center
11:02AM 39.0050 -77.8381 124° Southeast 320 368 6,200 -840 Descending Washington Center
11:03AM 38.9633 -77.7272 116° Southeast 320 368 6,000 -120 Descending Washington Center
11:03AM 38.9667 -77.6167 88° East 319 367 6,000  Level Potomac TRACON
11:05AM 39.0500 -77.5833 17° North 260 299 6,000  Level Potomac TRACON
11:06AM 39.1000 -77.5667 15° North 226 260 6,000 -180 Level Potomac TRACON
11:06AM 39.1667 -77.5667 360° North 223 257 5,700 -900 Descending Potomac TRACON
11:07AM 39.2000 -77.5333 38° Northeast 258 297 4,300 -1,080 Descending Potomac TRACON
11:08AM 39.1833 -77.4667 108° East 244 281 3,600 -840 Descending Potomac TRACON
11:09AM 39.1167 -77.4500 169° South 206 237 2,700 -720 Descending Potomac TRACON
11:10AM 39.0667 -77.4500 180° South 185 213 2,200 -660 Descending Potomac TRACON
11:11AM 39.0167 -77.4667 195° South 133 153 1,400 -720 Descending Potomac TRACON
11:12AM 38.9833 -77.4667 180° South 119 137 800 -600 Descending Potomac TRACON